sensor_id;sensor_type;location;lat;lon;timestamp;pressure;altitude;pressure_sealevel;temperature;humidity
19761;BME280;10039;42.632;23.408;2023-09-12T00:01:48;95136.47;;;18.30;54.71
19761;BME280;10039;42.632;23.408;2023-09-12T00:04:14;95120.31;;;18.12;54.75
19761;BME280;10039;42.632;23.408;2023-09-12T00:06:44;95129.25;;;18.18;55.23
19761;BME280;10039;42.632;23.408;2023-09-12T00:09:13;95138.56;;;18.17;55.23
19761;BME280;10039;42.632;23.408;2023-09-12T00:11:44;95131.44;;;17.87;55.84
19761;BME280;10039;42.632;23.408;2023-09-12T00:14:17;95118.13;;;17.75;56.32
19761;BME280;10039;42.632;23.408;2023-09-12T00:16:44;95122.19;;;17.61;56.76
19761;BME280;10039;42.632;23.408;2023-09-12T00:19:13;95158.91;;;17.77;57.47
19761;BME280;10039;42.632;23.408;2023-09-12T00:21:41;95131.91;;;17.23;58.42
19761;BME280;10039;42.632;23.408;2023-09-12T00:24:16;95134.31;;;17.21;58.29
19761;BME280;10039;42.632;23.408;2023-09-12T00:26:42;95165.81;;;17.42;59.00
19761;BME280;10039;42.632;23.408;2023-09-12T00:29:09;95131.00;;;17.08;58.95
19761;BME280;10039;42.632;23.408;2023-09-12T00:31:38;95152.00;;;17.22;59.14
19761;BME280;10039;42.632;23.408;2023-09-12T00:34:08;95119.03;;;17.00;58.84
19761;BME280;10039;42.632;23.408;2023-09-12T00:36:34;95158.00;;;17.26;59.18
19761;BME280;10039;42.632;23.408;2023-09-12T00:39:05;95140.41;;;16.94;59.29
19761;BME280;10039;42.632;23.408;2023-09-12T00:41:31;95171.75;;;17.10;60.06
19761;BME280;10039;42.632;23.408;2023-09-12T00:44:00;95133.06;;;16.86;59.28
19761;BME280;10039;42.632;23.408;2023-09-12T00:46:26;95142.03;;;16.83;59.59
19761;BME280;10039;42.632;23.408;2023-09-12T00:48:58;95182.53;;;16.92;59.89
19761;BME280;10039;42.632;23.408;2023-09-12T00:51:31;95141.56;;;16.67;59.92
19761;BME280;10039;42.632;23.408;2023-09-12T00:53:58;95132.25;;;16.59;60.40
19761;BME280;10039;42.632;23.408;2023-09-12T00:56:27;95137.03;;;16.55;60.42
19761;BME280;10039;42.632;23.408;2023-09-12T00:58:53;95136.28;;;16.54;60.36
19761;BME280;10039;42.632;23.408;2023-09-12T01:01:21;95190.00;;;16.88;59.98
19761;BME280;10039;42.632;23.408;2023-09-12T01:03:47;95147.22;;;16.60;59.91
19761;BME280;10039;42.632;23.408;2023-09-12T01:06:23;95139.91;;;16.60;59.50
19761;BME280;10039;42.632;23.408;2023-09-12T01:08:52;95155.09;;;16.85;59.64
19761;BME280;10039;42.632;23.408;2023-09-12T01:11:19;95188.06;;;16.97;59.65
19761;BME280;10039;42.632;23.408;2023-09-12T01:13:49;95151.28;;;16.73;59.24
19761;BME280;10039;42.632;23.408;2023-09-12T01:16:17;95148.31;;;16.71;59.00
19761;BME280;10039;42.632;23.408;2023-09-12T01:18:43;95157.44;;;16.74;59.23
19761;BME280;10039;42.632;23.408;2023-09-12T01:26:58;95189.78;;;17.22;59.19
19761;BME280;10039;42.632;23.408;2023-09-12T01:29:30;95202.06;;;17.23;58.60
19761;BME280;10039;42.632;23.408;2023-09-12T01:32:14;95153.91;;;16.86;59.04
19761;BME280;10039;42.632;23.408;2023-09-12T01:34:40;95151.66;;;16.93;58.85
19761;BME280;10039;42.632;23.408;2023-09-12T01:37:06;95180.03;;;17.15;58.72
19761;BME280;10039;42.632;23.408;2023-09-12T01:39:32;95170.56;;;17.11;58.22
19761;BME280;10039;42.632;23.408;2023-09-12T01:42:03;95148.38;;;16.98;58.27
19761;BME280;10039;42.632;23.408;2023-09-12T01:44:36;95152.41;;;16.93;58.46
19761;BME280;10039;42.632;23.408;2023-09-12T01:47:07;95200.25;;;17.20;58.40
19761;BME280;10039;42.632;23.408;2023-09-12T01:49:41;95166.47;;;16.80;58.49
19761;BME280;10039;42.632;23.408;2023-09-12T01:52:08;95178.28;;;16.82;58.56
19761;BME280;10039;42.632;23.408;2023-09-12T01:54:37;95163.56;;;16.65;58.75
19761;BME280;10039;42.632;23.408;2023-09-12T01:57:16;95188.03;;;16.80;58.78
19761;BME280;10039;42.632;23.408;2023-09-12T01:59:42;95192.91;;;16.63;58.94
19761;BME280;10039;42.632;23.408;2023-09-12T02:02:14;95209.72;;;16.76;58.54
19761;BME280;10039;42.632;23.408;2023-09-12T02:05:20;95161.25;;;16.46;58.28
19761;BME280;10039;42.632;23.408;2023-09-12T02:07:52;95160.00;;;16.38;58.19
19761;BME280;10039;42.632;23.408;2023-09-12T02:10:18;95154.78;;;16.34;58.41
19761;BME280;10039;42.632;23.408;2023-09-12T02:12:44;95163.09;;;16.27;58.33
19761;BME280;10039;42.632;23.408;2023-09-12T02:15:13;95174.38;;;16.35;58.51
19761;BME280;10039;42.632;23.408;2023-09-12T02:17:40;95163.03;;;16.18;58.32
19761;BME280;10039;42.632;23.408;2023-09-12T02:20:12;95176.56;;;16.27;58.47
19761;BME280;10039;42.632;23.408;2023-09-12T02:22:41;95165.91;;;16.24;58.37
19761;BME280;10039;42.632;23.408;2023-09-12T02:25:20;95188.31;;;16.42;58.77
19761;BME280;10039;42.632;23.408;2023-09-12T02:27:46;95170.28;;;16.30;58.69
19761;BME280;10039;42.632;23.408;2023-09-12T02:30:12;95172.66;;;16.28;58.44
19761;BME280;10039;42.632;23.408;2023-09-12T02:32:38;95211.00;;;16.63;58.72
19761;BME280;10039;42.632;23.408;2023-09-12T02:35:07;95197.06;;;16.55;58.81
19761;BME280;10039;42.632;23.408;2023-09-12T02:37:33;95214.91;;;16.62;58.86
19761;BME280;10039;42.632;23.408;2023-09-12T02:40:03;95177.75;;;16.26;59.01
19761;BME280;10039;42.632;23.408;2023-09-12T02:42:32;95164.53;;;16.19;59.37
19761;BME280;10039;42.632;23.408;2023-09-12T02:44:58;95170.94;;;16.13;59.54
19761;BME280;10039;42.632;23.408;2023-09-12T02:47:27;95163.56;;;16.04;59.35
19761;BME280;10039;42.632;23.408;2023-09-12T02:49:54;95158.91;;;16.05;59.59
19761;BME280;10039;42.632;23.408;2023-09-12T02:52:20;95225.16;;;16.45;59.33
19761;BME280;10039;42.632;23.408;2023-09-12T02:54:47;95197.22;;;16.30;59.57
19761;BME280;10039;42.632;23.408;2023-09-12T02:57:23;95177.47;;;16.03;59.53
19761;BME280;10039;42.632;23.408;2023-09-12T02:59:49;95174.13;;;15.99;59.95
19761;BME280;10039;42.632;23.408;2023-09-12T03:02:18;95170.84;;;15.73;60.52
19761;BME280;10039;42.632;23.408;2023-09-12T03:04:46;95194.56;;;15.87;60.82
19761;BME280;10039;42.632;23.408;2023-09-12T03:07:13;95165.00;;;15.54;60.66
19761;BME280;10039;42.632;23.408;2023-09-12T03:09:48;95176.47;;;15.67;60.01
19761;BME280;10039;42.632;23.408;2023-09-12T03:12:18;95175.44;;;15.52;60.96
19761;BME280;10039;42.632;23.408;2023-09-12T03:14:49;95169.50;;;15.35;61.33
19761;BME280;10039;42.632;23.408;2023-09-12T03:17:21;95162.25;;;15.11;62.03
19761;BME280;10039;42.632;23.408;2023-09-12T03:19:50;95154.50;;;15.13;62.37
19761;BME280;10039;42.632;23.408;2023-09-12T03:22:16;95184.69;;;15.17;62.63
19761;BME280;10039;42.632;23.408;2023-09-12T03:24:42;95178.38;;;15.11;62.43
19761;BME280;10039;42.632;23.408;2023-09-12T03:27:12;95218.50;;;15.52;62.52
19761;BME280;10039;42.632;23.408;2023-09-12T03:29:38;95183.94;;;15.29;62.37
19761;BME280;10039;42.632;23.408;2023-09-12T03:32:10;95186.31;;;15.27;62.46
19761;BME280;10039;42.632;23.408;2023-09-12T03:34:36;95225.56;;;15.71;61.98
19761;BME280;10039;42.632;23.408;2023-09-12T03:37:05;95221.03;;;15.68;62.07
19761;BME280;10039;42.632;23.408;2023-09-12T03:39:36;95180.19;;;15.26;62.23
19761;BME280;10039;42.632;23.408;2023-09-12T03:42:05;95189.09;;;15.36;61.98
19761;BME280;10039;42.632;23.408;2023-09-12T03:44:31;95191.47;;;15.34;61.91
19761;BME280;10039;42.632;23.408;2023-09-12T03:46:58;95204.84;;;15.46;61.81
19761;BME280;10039;42.632;23.408;2023-09-12T03:49:24;95192.03;;;15.50;61.48
19761;BME280;10039;42.632;23.408;2023-09-12T03:51:50;95185.25;;;15.46;61.16
19761;BME280;10039;42.632;23.408;2023-09-12T03:54:16;95195.41;;;15.42;61.30
19761;BME280;10039;42.632;23.408;2023-09-12T03:56:43;95244.81;;;15.69;60.94
19761;BME280;10039;42.632;23.408;2023-09-12T03:59:09;95199.84;;;15.36;61.17
19761;BME280;10039;42.632;23.408;2023-09-12T04:01:35;95199.84;;;15.36;60.76
19761;BME280;10039;42.632;23.408;2023-09-12T04:04:03;95189.09;;;15.36;60.84
19761;BME280;10039;42.632;23.408;2023-09-12T04:06:29;95201.72;;;15.48;61.25
19761;BME280;10039;42.632;23.408;2023-09-12T04:08:58;95198.84;;;15.42;61.04
19761;BME280;10039;42.632;23.408;2023-09-12T04:11:27;95189.34;;;15.50;60.98
19761;BME280;10039;42.632;23.408;2023-09-12T04:13:56;95190.09;;;15.51;60.79
19761;BME280;10039;42.632;23.408;2023-09-12T04:16:22;95208.38;;;15.56;61.03
19761;BME280;10039;42.632;23.408;2023-09-12T04:18:48;95190.47;;;15.40;61.11
19761;BME280;10039;42.632;23.408;2023-09-12T04:21:15;95224.91;;;15.67;61.14
19761;BME280;10039;42.632;23.408;2023-09-12T04:23:46;95198.56;;;15.28;61.32
19761;BME280;10039;42.632;23.408;2023-09-12T04:26:12;95254.56;;;15.54;62.03
19761;BME280;10039;42.632;23.408;2023-09-12T04:28:38;95243.63;;;15.36;62.38
19761;BME280;10039;42.632;23.408;2023-09-12T04:31:04;95203.97;;;15.03;62.33
19761;BME280;10039;42.632;23.408;2023-09-12T04:33:31;95211.47;;;15.33;61.77
19761;BME280;10039;42.632;23.408;2023-09-12T04:36:03;95195.75;;;15.19;62.23
19761;BME280;10039;42.632;23.408;2023-09-12T04:38:30;95206.75;;;15.12;62.50
19761;BME280;10039;42.632;23.408;2023-09-12T04:41:01;95195.97;;;15.24;62.18
19761;BME280;10039;42.632;23.408;2023-09-12T04:43:32;95198.34;;;15.35;61.65
19761;BME280;10039;42.632;23.408;2023-09-12T04:45:58;95225.38;;;15.53;61.43
19761;BME280;10039;42.632;23.408;2023-09-12T04:48:24;95209.72;;;15.39;61.52
19761;BME280;10039;42.632;23.408;2023-09-12T04:50:50;95206.72;;;15.37;61.59
19761;BME280;10039;42.632;23.408;2023-09-12T04:53:17;95222.16;;;15.58;61.64
19761;BME280;10039;42.632;23.408;2023-09-12T04:55:43;95206.50;;;15.44;61.67
19761;BME280;10039;42.632;23.408;2023-09-12T04:58:10;95191.72;;;15.48;61.16
19761;BME280;10039;42.632;23.408;2023-09-12T05:00:39;95213.91;;;15.73;61.44
19761;BME280;10039;42.632;23.408;2023-09-12T05:03:09;95197.88;;;15.70;61.20
19761;BME280;10039;42.632;23.408;2023-09-12T05:05:44;95204.19;;;15.76;61.23
19761;BME280;10039;42.632;23.408;2023-09-12T05:08:11;95207.03;;;15.73;61.85
19761;BME280;10039;42.632;23.408;2023-09-12T05:10:38;95231.13;;;15.97;61.22
19761;BME280;10039;42.632;23.408;2023-09-12T05:13:13;95214.97;;;15.97;61.32
19761;BME280;10039;42.632;23.408;2023-09-12T05:15:42;95224.63;;;16.07;60.91
19761;BME280;10039;42.632;23.408;2023-09-12T05:18:10;95208.41;;;15.98;60.45
19761;BME280;10039;42.632;23.408;2023-09-12T05:20:42;95218.41;;;15.98;60.85
19761;BME280;10039;42.632;23.408;2023-09-12T05:23:08;95213.22;;;16.03;60.54
19761;BME280;10039;42.632;23.408;2023-09-12T05:25:45;95214.91;;;16.10;59.84
19761;BME280;10039;42.632;23.408;2023-09-12T05:28:12;95221.69;;;15.93;61.06
19761;BME280;10039;42.632;23.408;2023-09-12T05:30:42;95250.09;;;16.15;60.85
19761;BME280;10039;42.632;23.408;2023-09-12T05:33:08;95225.56;;;15.92;60.96
19761;BME280;10039;42.632;23.408;2023-09-12T05:35:34;95228.81;;;15.87;61.78
19761;BME280;10039;42.632;23.408;2023-09-12T05:38:00;95226.88;;;15.54;62.46
19761;BME280;10039;42.632;23.408;2023-09-12T05:40:28;95262.13;;;16.02;62.20
19761;BME280;10039;42.632;23.408;2023-09-12T05:42:54;95266.63;;;16.05;61.90
19761;BME280;10039;42.632;23.408;2023-09-12T05:45:24;95230.19;;;15.91;61.79
19761;BME280;10039;42.632;23.408;2023-09-12T05:47:50;95245.22;;;16.01;61.55
19761;BME280;10039;42.632;23.408;2023-09-12T05:50:16;95232.56;;;16.11;61.05
19761;BME280;10039;42.632;23.408;2023-09-12T05:52:42;95245.72;;;16.09;60.99
19761;BME280;10039;42.632;23.408;2023-09-12T05:55:09;95228.44;;;15.97;60.62
19761;BME280;10039;42.632;23.408;2023-09-12T05:57:38;95261.66;;;16.37;61.16
19761;BME280;10039;42.632;23.408;2023-09-12T06:00:06;95226.47;;;16.19;61.00
19761;BME280;10039;42.632;23.408;2023-09-12T06:05:25;95231.25;;;16.67;59.88
19761;BME280;10039;42.632;23.408;2023-09-12T06:07:51;95226.50;;;16.80;59.10
19761;BME280;10039;42.632;23.408;2023-09-12T06:10:21;95232.88;;;16.95;58.67
19761;BME280;10039;42.632;23.408;2023-09-12T06:12:47;95232.66;;;16.81;58.98
19761;BME280;10039;42.632;23.408;2023-09-12T06:15:15;95244.53;;;16.92;58.83
19761;BME280;10039;42.632;23.408;2023-09-12T06:17:41;95251.78;;;17.13;58.85
19761;BME280;10039;42.632;23.408;2023-09-12T06:20:10;95245.84;;;17.27;58.30
19761;BME280;10039;42.632;23.408;2023-09-12T06:22:36;95244.41;;;17.35;58.10
19761;BME280;10039;42.632;23.408;2023-09-12T06:25:02;95254.00;;;17.36;57.44
19761;BME280;10039;42.632;23.408;2023-09-12T06:27:29;95225.50;;;17.35;57.59
19761;BME280;10039;42.632;23.408;2023-09-12T06:29:56;95285.69;;;17.80;57.59
19761;BME280;10039;42.632;23.408;2023-09-12T06:32:22;95258.84;;;17.86;57.26
19761;BME280;10039;42.632;23.408;2023-09-12T06:34:49;95235.44;;;17.92;56.84
19761;BME280;10039;42.632;23.408;2023-09-12T06:37:15;95260.03;;;18.11;56.03
19761;BME280;10039;42.632;23.408;2023-09-12T06:39:41;95284.63;;;18.58;55.93
19761;BME280;10039;42.632;23.408;2023-09-12T06:42:08;95286.06;;;18.86;55.38
19761;BME280;10039;42.632;23.408;2023-09-12T06:44:34;95284.06;;;18.96;55.02
19761;BME280;10039;42.632;23.408;2023-09-12T06:47:00;95265.84;;;18.96;53.63
19761;BME280;10039;42.632;23.408;2023-09-12T06:49:26;95271.38;;;19.11;53.74
19761;BME280;10039;42.632;23.408;2023-09-12T06:51:52;95274.44;;;19.36;53.42
19761;BME280;10039;42.632;23.408;2023-09-12T06:54:21;95257.03;;;19.51;53.01
19761;BME280;10039;42.632;23.408;2023-09-12T06:56:46;95239.06;;;19.63;52.60
19761;BME280;10039;42.632;23.408;2023-09-12T06:59:12;95241.72;;;19.72;52.01
19761;BME280;10039;42.632;23.408;2023-09-12T07:01:38;95242.88;;;19.80;52.63
19761;BME280;10039;42.632;23.408;2023-09-12T07:04:04;95259.69;;;20.07;51.71
19761;BME280;10039;42.632;23.408;2023-09-12T07:06:30;95268.16;;;20.38;51.93
19761;BME280;10039;42.632;23.408;2023-09-12T07:08:58;95272.47;;;20.73;51.38
19761;BME280;10039;42.632;23.408;2023-09-12T07:11:24;95254.19;;;20.74;51.41
19761;BME280;10039;42.632;23.408;2023-09-12T07:13:52;95237.25;;;20.79;50.76
19761;BME280;10039;42.632;23.408;2023-09-12T07:16:21;95274.22;;;21.20;49.77
19761;BME280;10039;42.632;23.408;2023-09-12T07:18:50;95235.69;;;20.87;48.54
19761;BME280;10039;42.632;23.408;2023-09-12T07:21:18;95275.00;;;21.40;48.92
19761;BME280;10039;42.632;23.408;2023-09-12T07:23:45;95270.50;;;21.37;48.99
19761;BME280;10039;42.632;23.408;2023-09-12T07:26:14;95258.97;;;21.42;47.74
19761;BME280;10039;42.632;23.408;2023-09-12T07:28:40;95250.16;;;21.47;47.08
19761;BME280;10039;42.632;23.408;2023-09-12T07:31:06;95243.31;;;21.51;46.91
19761;BME280;10039;42.632;23.408;2023-09-12T07:33:32;95251.69;;;21.68;47.09
19761;BME280;10039;42.632;23.408;2023-09-12T07:35:58;95271.38;;;21.83;46.59
19761;BME280;10039;42.632;23.408;2023-09-12T07:38:25;95266.38;;;21.96;45.90
19761;BME280;10039;42.632;23.408;2023-09-12T07:40:52;95241.91;;;21.96;46.03
19761;BME280;10039;42.632;23.408;2023-09-12T07:43:17;95237.31;;;21.82;44.57
19761;BME280;10039;42.632;23.408;2023-09-12T07:45:43;95246.78;;;22.12;45.33
19761;BME280;10039;42.632;23.408;2023-09-12T07:48:10;95252.22;;;22.57;44.50
19761;BME280;10039;42.632;23.408;2023-09-12T07:50:39;95254.34;;;22.73;43.31
19761;BME280;10039;42.632;23.408;2023-09-12T07:53:07;95256.09;;;23.07;43.46
19761;BME280;10039;42.632;23.408;2023-09-12T07:55:38;95268.31;;;23.53;43.95
19761;BME280;10039;42.632;23.408;2023-09-12T07:58:17;95251.78;;;23.62;42.07
19761;BME280;10039;42.632;23.408;2023-09-12T08:00:49;95253.53;;;23.71;41.68
19761;BME280;10039;42.632;23.408;2023-09-12T08:03:15;95232.06;;;23.36;42.56
19761;BME280;10039;42.632;23.408;2023-09-12T08:05:40;95265.78;;;23.86;42.63
19761;BME280;10039;42.632;23.408;2023-09-12T08:08:06;95236.25;;;23.79;41.41
19761;BME280;10039;42.632;23.408;2023-09-12T08:10:32;95251.19;;;23.89;40.73
19761;BME280;10039;42.632;23.408;2023-09-12T08:12:58;95235.53;;;23.84;39.67
19761;BME280;10039;42.632;23.408;2023-09-12T08:15:23;95236.06;;;23.88;39.34
19761;BME280;10039;42.632;23.408;2023-09-12T08:17:50;95240.84;;;24.09;39.53
19761;BME280;10039;42.632;23.408;2023-09-12T08:20:18;95258.19;;;24.06;39.84
19761;BME280;10039;42.632;23.408;2023-09-12T08:22:43;95259.78;;;23.35;41.52
19761;BME280;10039;42.632;23.408;2023-09-12T08:25:09;95246.22;;;23.40;41.98
19761;BME280;10039;42.632;23.408;2023-09-12T08:27:35;95240.38;;;23.64;41.02
19761;BME280;10039;42.632;23.408;2023-09-12T08:30:01;95271.84;;;23.65;40.71
19761;BME280;10039;42.632;23.408;2023-09-12T08:32:29;95248.91;;;23.82;41.26
19761;BME280;10039;42.632;23.408;2023-09-12T08:34:54;95240.84;;;24.09;40.56
19761;BME280;10039;42.632;23.408;2023-09-12T08:37:20;95256.03;;;24.38;39.31
19761;BME280;10039;42.632;23.408;2023-09-12T08:39:45;95223.78;;;24.31;39.14
19761;BME280;10039;42.632;23.408;2023-09-12T08:42:13;95209.09;;;24.12;38.35
19761;BME280;10039;42.632;23.408;2023-09-12T08:44:40;95244.13;;;24.30;38.79
19761;BME280;10039;42.632;23.408;2023-09-12T08:47:08;95223.72;;;24.09;38.70
19761;BME280;10039;42.632;23.408;2023-09-12T08:49:35;95217.53;;;24.03;39.41
19761;BME280;10039;42.632;23.408;2023-09-12T08:52:02;95235.44;;;24.26;38.39
19761;BME280;10039;42.632;23.408;2023-09-12T08:54:29;95224.28;;;24.24;39.63
19761;BME280;10039;42.632;23.408;2023-09-12T08:56:55;95206.38;;;24.12;38.84
19761;BME280;10039;42.632;23.408;2023-09-12T08:59:22;95218.97;;;23.98;39.03
19761;BME280;10039;42.632;23.408;2023-09-12T09:01:48;95229.94;;;24.15;38.07
19761;BME280;10039;42.632;23.408;2023-09-12T09:04:17;95249.28;;;24.17;38.50
19761;BME280;10039;42.632;23.408;2023-09-12T09:06:45;95239.34;;;24.08;38.59
19761;BME280;10039;42.632;23.408;2023-09-12T09:09:12;95199.78;;;23.77;39.82
19761;BME280;10039;42.632;23.408;2023-09-12T09:11:38;95235.38;;;24.04;38.68
19761;BME280;10039;42.632;23.408;2023-09-12T09:14:04;95203.00;;;23.75;38.58
19761;BME280;10039;42.632;23.408;2023-09-12T09:16:30;95207.53;;;23.89;39.40
19761;BME280;10039;42.632;23.408;2023-09-12T09:19:04;95208.84;;;24.10;39.71
19761;BME280;10039;42.632;23.408;2023-09-12T09:21:35;95212.72;;;23.82;38.17
19761;BME280;10039;42.632;23.408;2023-09-12T09:24:03;95202.34;;;23.91;38.94
19761;BME280;10039;42.632;23.408;2023-09-12T09:26:42;95225.25;;;24.21;38.61
19761;BME280;10039;42.632;23.408;2023-09-12T09:29:10;95212.06;;;24.08;38.63
19761;BME280;10039;42.632;23.408;2023-09-12T09:31:40;95222.44;;;23.93;38.77
19761;BME280;10039;42.632;23.408;2023-09-12T09:34:13;95189.34;;;23.75;39.49
19761;BME280;10039;42.632;23.408;2023-09-12T09:36:43;95213.56;;;24.09;40.24
19761;BME280;10039;42.632;23.408;2023-09-12T09:39:10;95218.56;;;24.22;38.39
19761;BME280;10039;42.632;23.408;2023-09-12T09:41:42;95179.78;;;23.90;38.22
19761;BME280;10039;42.632;23.408;2023-09-12T09:44:13;95199.69;;;24.13;37.62
19761;BME280;10039;42.632;23.408;2023-09-12T09:46:43;95206.16;;;24.26;38.55
19761;BME280;10039;42.632;23.408;2023-09-12T09:49:16;95151.28;;;23.97;37.72
19761;BME280;10039;42.632;23.408;2023-09-12T09:51:44;95176.34;;;24.12;38.58
19761;BME280;10039;42.632;23.408;2023-09-12T09:54:19;95161.22;;;24.00;38.14
19761;BME280;10039;42.632;23.408;2023-09-12T09:56:53;95214.09;;;24.24;38.48
19761;BME280;10039;42.632;23.408;2023-09-12T09:59:32;95164.41;;;23.88;37.62
19761;BME280;10039;42.632;23.408;2023-09-12T10:02:01;95157.94;;;23.90;38.69
19761;BME280;10039;42.632;23.408;2023-09-12T10:04:31;95179.84;;;24.12;38.98
19761;BME280;10039;42.632;23.408;2023-09-12T10:07:00;95184.78;;;24.14;39.72
19761;BME280;10039;42.632;23.408;2023-09-12T10:09:27;95159.00;;;24.09;39.30
19761;BME280;10039;42.632;23.408;2023-09-12T10:12:10;95188.09;;;24.45;38.24
19761;BME280;10039;42.632;23.408;2023-09-12T10:14:39;95171.19;;;24.25;38.15
19761;BME280;10039;42.632;23.408;2023-09-12T10:17:05;95154.28;;;24.10;39.48
19761;BME280;10039;42.632;23.408;2023-09-12T10:19:51;95143.38;;;24.10;39.63
19761;BME280;10039;42.632;23.408;2023-09-12T10:22:37;95149.59;;;24.16;38.21
19761;BME280;10039;42.632;23.408;2023-09-12T10:25:05;95159.28;;;24.28;39.08
19761;BME280;10039;42.632;23.408;2023-09-12T10:27:33;95152.81;;;24.42;39.00
19761;BME280;10039;42.632;23.408;2023-09-12T10:30:01;95152.81;;;24.42;39.10
19761;BME280;10039;42.632;23.408;2023-09-12T10:32:28;95123.06;;;24.33;40.19
19761;BME280;10039;42.632;23.408;2023-09-12T10:34:59;95119.09;;;24.34;40.52
19761;BME280;10039;42.632;23.408;2023-09-12T10:37:26;95128.56;;;24.49;39.62
19761;BME280;10039;42.632;23.408;2023-09-12T10:39:54;95139.19;;;24.75;39.28
19761;BME280;10039;42.632;23.408;2023-09-12T10:42:21;95123.09;;;24.66;40.05
19761;BME280;10039;42.632;23.408;2023-09-12T10:44:50;95136.47;;;24.86;38.54
19761;BME280;10039;42.632;23.408;2023-09-12T10:47:17;95135.72;;;24.80;39.03
19761;BME280;10039;42.632;23.408;2023-09-12T10:49:44;95113.91;;;24.69;39.34
19761;BME280;10039;42.632;23.408;2023-09-12T10:52:10;95147.63;;;24.93;39.56
19761;BME280;10039;42.632;23.408;2023-09-12T10:54:48;95140.91;;;25.00;38.59
19761;BME280;10039;42.632;23.408;2023-09-12T10:57:14;95139.91;;;25.02;38.42
19761;BME280;10039;42.632;23.408;2023-09-12T11:02:28;95132.69;;;25.10;38.88
19761;BME280;10039;42.632;23.408;2023-09-12T11:04:54;95125.50;;;25.18;39.37
19761;BME280;10039;42.632;23.408;2023-09-12T11:12:47;95111.31;;;25.20;41.36
19761;BME280;10039;42.632;23.408;2023-09-12T11:15:14;95104.38;;;25.24;38.94
19761;BME280;10039;42.632;23.408;2023-09-12T11:17:44;95113.28;;;25.30;38.08
19761;BME280;10039;42.632;23.408;2023-09-12T11:20:11;95098.69;;;25.17;37.72
19761;BME280;10039;42.632;23.408;2023-09-12T11:22:41;95086.75;;;25.14;39.16
19761;BME280;10039;42.632;23.408;2023-09-12T11:32:46;95086.63;;;25.47;38.72
19761;BME280;10039;42.632;23.408;2023-09-12T11:35:14;95097.28;;;25.51;38.94
19761;BME280;10039;42.632;23.408;2023-09-12T11:37:48;95076.94;;;25.46;37.40
19761;BME280;10039;42.632;23.408;2023-09-12T11:42:39;95064.47;;;25.51;37.47
19761;BME280;10039;42.632;23.408;2023-09-12T11:45:14;95083.25;;;25.71;38.06
19761;BME280;10039;42.632;23.408;2023-09-12T11:47:44;95075.06;;;25.65;36.11
19761;BME280;10039;42.632;23.408;2023-09-12T11:50:32;95084.44;;;25.86;37.01
19761;BME280;10039;42.632;23.408;2023-09-12T11:55:26;95075.53;;;25.80;36.25
19761;BME280;10039;42.632;23.408;2023-09-12T11:57:52;95037.25;;;25.69;36.25
19761;BME280;10039;42.632;23.408;2023-09-12T12:00:18;95072.78;;;25.80;35.36
19761;BME280;10039;42.632;23.408;2023-09-12T12:02:45;95060.78;;;25.89;34.90
19761;BME280;10039;42.632;23.408;2023-09-12T12:05:12;95035.69;;;25.90;35.31
19761;BME280;10039;42.632;23.408;2023-09-12T12:07:38;95055.97;;;26.06;35.55
19761;BME280;10039;42.632;23.408;2023-09-12T12:10:04;95032.84;;;26.01;35.15
19761;BME280;10039;42.632;23.408;2023-09-12T12:12:31;95072.63;;;26.37;34.84
19761;BME280;10039;42.632;23.408;2023-09-12T12:14:56;95052.50;;;26.29;34.09
19761;BME280;10039;42.632;23.408;2023-09-12T12:17:22;95056.66;;;26.41;34.07
19761;BME280;10039;42.632;23.408;2023-09-12T12:19:50;95071.53;;;26.51;34.20
19761;BME280;10039;42.632;23.408;2023-09-12T12:22:16;95036.78;;;26.35;34.00
19761;BME280;10039;42.632;23.408;2023-09-12T12:24:46;95058.13;;;26.42;34.24
19761;BME280;10039;42.632;23.408;2023-09-12T12:27:14;95035.06;;;26.32;33.62
19761;BME280;10039;42.632;23.408;2023-09-12T12:29:40;95033.75;;;26.44;34.08
19761;BME280;10039;42.632;23.408;2023-09-12T12:32:08;95048.59;;;26.54;34.13
19761;BME280;10039;42.632;23.408;2023-09-12T12:34:35;95036.16;;;26.53;33.65
19761;BME280;10039;42.632;23.408;2023-09-12T12:37:01;95034.22;;;26.48;35.04
19761;BME280;10039;42.632;23.408;2023-09-12T12:39:27;95057.72;;;26.62;34.00
19761;BME280;10039;42.632;23.408;2023-09-12T12:41:53;95051.22;;;26.65;33.87
19761;BME280;10039;42.632;23.408;2023-09-12T12:44:19;95012.59;;;26.44;33.58
19761;BME280;10039;42.632;23.408;2023-09-12T12:46:52;95053.88;;;26.76;33.13
19761;BME280;10039;42.632;23.408;2023-09-12T12:49:19;95045.41;;;26.74;33.54
19761;BME280;10039;42.632;23.408;2023-09-12T12:51:46;95011.75;;;26.55;32.83
19761;BME280;10039;42.632;23.408;2023-09-12T12:54:12;95062.19;;;26.65;33.48
19761;BME280;10039;42.632;23.408;2023-09-12T12:56:38;95043.19;;;26.72;33.38
19761;BME280;10039;42.632;23.408;2023-09-12T12:59:08;95007.47;;;26.59;33.48
19761;BME280;10039;42.632;23.408;2023-09-12T13:01:38;95039.88;;;26.79;33.26
19761;BME280;10039;42.632;23.408;2023-09-12T13:04:10;95003.63;;;26.68;32.93
19761;BME280;10039;42.632;23.408;2023-09-12T13:06:36;95024.06;;;26.91;33.41
19761;BME280;10039;42.632;23.408;2023-09-12T13:09:03;95031.69;;;26.98;33.94
19761;BME280;10039;42.632;23.408;2023-09-12T13:11:34;95004.25;;;26.79;34.01
19761;BME280;10039;42.632;23.408;2023-09-12T13:14:00;95027.38;;;26.84;34.82
19761;BME280;10039;42.632;23.408;2023-09-12T13:16:26;95035.06;;;26.85;33.27
19761;BME280;10039;42.632;23.408;2023-09-12T13:18:52;95030.34;;;26.86;33.95
19761;BME280;10039;42.632;23.408;2023-09-12T13:21:18;95034.88;;;27.07;33.46
19761;BME280;10039;42.632;23.408;2023-09-12T13:23:44;94985.81;;;26.80;33.52
19761;BME280;10039;42.632;23.408;2023-09-12T13:26:10;95008.50;;;26.99;33.17